Shimojishima Airport
RORS : now visible

Airfield :











YOU CAN JOIN US ON...

 
LOGIN :

Register | Disclaimer

   EN    FR    IT 

 









Legend :    VFR   Marginal VFR   IFR   Intensive IFR   Very Intensive IFR
Visi :
Ceiling :
>= 8 km
>= 3000ft
5 to 8 km
1000 to 3000 ft
1500m to 5 km
500 to 1000 ft
800 to 1500m
200 to 500 ft
< 800m
< 200 ft
Symbols :   Thunderstorms  Fog  Heavy snow  Heavy precipitations  Wind > 20 kt






- Airport Elevation : 54 ft
- IATA code : SHI


RORS - Shimojishima

CURRENT METAR :
  • 020300Z 07014KT 9999 -SHRA FEW010 SCT024 BKN033 24/21 Q1018

EXPIRED METARs :
  • 020200Z 07014KT 9999 -SHRA FEW013 SCT022 BKN050 26/20 Q1018
  • 020100Z 08013KT 9999 VCSH FEW020 SCT042 BKN060 24/21 Q1019

TAF N/A
RJJJ FIR / Asia



MET'MAP, your aeronautical weather chart ! - Copyright ORBIFLY December 2007 - Disclaimer

ORBIFLY MET'MAP TEAM :

Programming & Development : Alexandra Zaïnal
Original concept : Baudouin d'Aumeries
Technical & hardware support : Manuel Goepfert
Assistance : Marc-Olivier Méhu




SOURCES & CREDITS :

   NOAA       Earth
Advisory